createdAt,value
2019-03-12T00:00:14.114Z,86.99
2019-03-12T00:02:42.547Z,86.58
2019-03-12T00:05:11.127Z,86.18
2019-03-12T00:07:39.549Z,85.55
2019-03-12T00:10:09.141Z,84.58
2019-03-12T00:12:37.589Z,84.47
2019-03-12T00:15:07.079Z,84.11
2019-03-12T00:17:35.488Z,83.96
2019-03-12T00:20:05.291Z,83.40
2019-03-12T00:22:33.780Z,83.56
2019-03-12T00:25:02.214Z,83.16
2019-03-12T00:27:30.662Z,83.83
2019-03-12T00:29:59.087Z,83.93
2019-03-12T00:32:27.763Z,83.84
2019-03-12T00:34:56.177Z,83.87
2019-03-12T00:37:24.592Z,83.81
2019-03-12T00:39:53.298Z,82.85
2019-03-12T00:42:21.802Z,83.06
2019-03-12T00:44:50.289Z,82.62
2019-03-12T00:47:19.073Z,83.25
2019-03-12T00:49:47.485Z,83.29
2019-03-12T00:52:15.908Z,83.57
2019-03-12T00:54:44.350Z,84.24
2019-03-12T00:57:12.794Z,84.55
2019-03-12T00:59:41.242Z,84.27
2019-03-12T01:02:09.650Z,84.06
2019-03-12T01:04:38.094Z,83.93
2019-03-12T01:07:06.561Z,84.21
2019-03-12T01:09:35.171Z,84.12
2019-03-12T01:12:03.641Z,84.19
2019-03-12T01:14:32.147Z,84.02
2019-03-12T01:17:00.613Z,83.31
2019-03-12T01:19:29.099Z,83.26
2019-03-12T01:21:57.519Z,83.34
2019-03-12T01:24:25.988Z,82.77
2019-03-12T01:26:54.397Z,82.51
2019-03-12T01:29:22.825Z,82.94
2019-03-12T01:31:51.335Z,82.64
2019-03-12T01:34:19.862Z,83.00
2019-03-12T01:36:48.272Z,82.70
2019-03-12T01:39:16.735Z,82.82
2019-03-12T01:41:45.139Z,82.46
2019-03-12T01:44:13.557Z,82.69
2019-03-12T01:46:42.010Z,83.60
2019-03-12T01:49:10.458Z,83.80
2019-03-12T01:51:38.867Z,83.45
2019-03-12T01:54:07.394Z,83.62
2019-03-12T01:56:35.824Z,83.51
2019-03-12T01:59:04.269Z,83.52
2019-03-12T02:01:32.711Z,83.78
2019-03-12T02:04:01.157Z,83.36
2019-03-12T02:06:29.605Z,82.98
2019-03-12T02:08:58.025Z,83.37
2019-03-12T02:11:26.783Z,83.31
2019-03-12T02:13:55.195Z,84.09
2019-03-12T02:16:23.610Z,85.01
2019-03-12T02:18:52.064Z,85.79
2019-03-12T02:21:20.474Z,86.77
2019-03-12T02:23:48.939Z,87.42
2019-03-12T02:26:17.357Z,87.17
2019-03-12T02:28:45.800Z,86.59
2019-03-12T02:31:14.287Z,86.22
2019-03-12T02:33:42.800Z,86.44
2019-03-12T02:36:11.307Z,86.17
2019-03-12T02:38:39.724Z,85.85
2019-03-12T02:41:08.349Z,85.39
2019-03-12T02:43:36.748Z,85.14
2019-03-12T02:46:05.281Z,84.66
2019-03-12T02:48:33.766Z,84.42
2019-03-12T02:51:02.257Z,84.31
2019-03-12T02:53:30.896Z,84.23
2019-03-12T02:56:01.712Z,84.15
2019-03-12T02:58:29.462Z,83.58
2019-03-12T03:00:57.900Z,83.55
2019-03-12T03:03:26.619Z,83.53
2019-03-12T03:05:59.416Z,82.79
2019-03-12T03:08:31.952Z,82.94
2019-03-12T03:11:00.427Z,83.21
2019-03-12T03:13:28.844Z,83.46
2019-03-12T03:15:57.381Z,83.24
2019-03-12T03:18:25.798Z,83.22
2019-03-12T03:20:54.212Z,83.07
2019-03-12T03:23:22.957Z,83.21
2019-03-12T03:25:51.375Z,83.02
2019-03-12T03:28:19.798Z,83.12
2019-03-12T03:30:48.224Z,83.22
2019-03-12T03:33:16.672Z,83.24
2019-03-12T03:35:45.186Z,82.99
2019-03-12T03:38:13.679Z,83.39
2019-03-12T03:40:42.091Z,83.41
2019-03-12T03:43:10.552Z,83.21
2019-03-12T03:45:39.002Z,83.23
2019-03-12T03:48:07.418Z,83.15
2019-03-12T03:50:35.967Z,83.01
2019-03-12T03:53:04.370Z,82.83
2019-03-12T03:55:32.868Z,82.75
2019-03-12T03:58:01.461Z,82.14
2019-03-12T04:00:29.918Z,82.21
2019-03-12T04:02:58.405Z,81.75
2019-03-12T04:05:26.883Z,81.56
2019-03-12T04:07:55.302Z,81.15
2019-03-12T04:10:23.719Z,81.20
2019-03-12T04:12:52.167Z,81.06
2019-03-12T04:15:20.658Z,80.70
2019-03-12T04:17:49.141Z,80.33
2019-03-12T04:20:18.632Z,79.81
2019-03-12T04:22:47.175Z,79.71
2019-03-12T04:25:16.163Z,79.85
2019-03-12T04:27:44.577Z,80.22
2019-03-12T04:30:18.303Z,80.48
2019-03-12T04:32:47.094Z,80.37
2019-03-12T04:35:29.896Z,80.25
2019-03-12T04:38:07.239Z,80.84
2019-03-12T04:40:35.907Z,80.87
2019-03-12T04:43:04.414Z,80.63
2019-03-12T04:45:33.036Z,80.52
2019-03-12T04:48:01.476Z,80.11
2019-03-12T04:50:29.887Z,80.04
2019-03-12T04:52:59.255Z,79.87
2019-03-12T04:55:27.697Z,79.18
2019-03-12T04:57:56.155Z,79.14
2019-03-12T05:00:24.714Z,79.12
2019-03-12T05:02:53.136Z,79.28
2019-03-12T05:05:21.581Z,79.23
2019-03-12T05:07:50.033Z,79.29
2019-03-12T05:10:18.557Z,79.08
2019-03-12T05:12:46.991Z,78.57
2019-03-12T05:15:19.261Z,78.80
2019-03-12T05:17:47.804Z,78.84
2019-03-12T05:20:16.671Z,78.87
2019-03-12T05:22:45.110Z,78.64
2019-03-12T05:25:14.767Z,78.66
2019-03-12T05:27:43.643Z,78.43
2019-03-12T05:30:14.534Z,78.54
2019-03-12T05:32:42.956Z,78.28
2019-03-12T05:35:11.551Z,78.35
2019-03-12T05:37:39.964Z,77.90
2019-03-12T05:40:10.827Z,77.48
2019-03-12T05:42:39.308Z,77.66
2019-03-12T05:45:10.798Z,77.52
2019-03-12T05:47:39.219Z,77.29
2019-03-12T05:50:10.718Z,77.02
2019-03-12T05:52:39.132Z,76.87
2019-03-12T05:55:09.445Z,76.99
2019-03-12T05:57:37.874Z,76.73
2019-03-12T06:00:09.444Z,76.88
2019-03-12T06:02:37.886Z,76.75
2019-03-12T06:05:07.188Z,76.22
2019-03-12T06:07:35.608Z,76.07
2019-03-12T06:10:06.611Z,76.31
2019-03-12T06:12:35.076Z,76.39
2019-03-12T06:15:04.534Z,76.29
2019-03-12T06:17:33.006Z,76.28
2019-03-12T06:20:01.415Z,76.06
2019-03-12T06:22:29.875Z,75.85
2019-03-12T06:24:58.300Z,75.64
2019-03-12T06:27:26.751Z,75.71
2019-03-12T06:29:55.258Z,75.20
2019-03-12T06:32:28.070Z,74.34
2019-03-12T06:34:58.192Z,73.19
2019-03-12T06:37:31.045Z,71.53
2019-03-12T06:40:06.808Z,70.64
2019-03-12T06:42:36.900Z,70.23
2019-03-12T06:45:13.694Z,69.03
2019-03-12T06:47:46.415Z,68.05
2019-03-12T06:50:24.354Z,66.50
2019-03-12T06:52:59.928Z,65.65
2019-03-12T06:55:30.092Z,65.77
2019-03-12T06:58:22.356Z,65.17
2019-03-12T07:00:55.260Z,65.14
2019-03-12T07:03:28.313Z,64.10
2019-03-12T07:05:58.395Z,64.10
2019-03-12T07:08:28.483Z,63.73
2019-03-12T07:11:01.687Z,62.65
2019-03-12T07:13:34.709Z,61.57
2019-03-12T07:16:05.874Z,62.07
2019-03-12T07:18:44.816Z,62.07
2019-03-12T07:21:27.234Z,60.83
2019-03-12T07:24:09.364Z,60.41
2019-03-12T07:26:42.224Z,59.33
2019-03-12T07:29:14.872Z,57.34
2019-03-12T07:31:45.028Z,56.86
2019-03-12T07:34:18.500Z,58.30
2019-03-12T07:36:54.714Z,58.43
2019-03-12T07:39:33.669Z,57.21
2019-03-12T07:42:09.320Z,56.90
2019-03-12T07:44:48.084Z,55.46
2019-03-12T07:47:35.808Z,55.24
2019-03-12T07:50:14.927Z,54.58
2019-03-12T07:52:56.933Z,52.92
2019-03-12T07:55:29.735Z,51.14
2019-03-12T07:58:01.249Z,50.08
2019-03-12T08:00:31.409Z,49.20
2019-03-12T08:03:17.337Z,49.16
2019-03-12T08:05:47.467Z,46.87
2019-03-12T08:08:17.552Z,45.57
2019-03-12T08:10:56.552Z,45.59
2019-03-12T08:13:41.995Z,45.52
2019-03-12T08:16:12.150Z,45.42
2019-03-12T08:18:47.772Z,42.67
2019-03-12T08:21:34.282Z,42.06
2019-03-12T08:24:04.335Z,42.50
2019-03-12T08:26:34.435Z,42.93
2019-03-12T08:29:21.016Z,42.53
2019-03-12T08:32:03.494Z,41.08
2019-03-12T08:34:33.588Z,41.53
2019-03-12T08:37:06.356Z,40.03
2019-03-12T08:39:42.450Z,37.19
2019-03-12T08:42:15.232Z,37.94
2019-03-12T08:45:01.842Z,35.08
2019-03-12T08:47:48.088Z,36.17
2019-03-12T08:50:34.375Z,35.58
2019-03-12T08:53:07.233Z,36.73
2019-03-12T08:55:43.254Z,33.90
2019-03-12T08:58:13.325Z,32.43
2019-03-12T09:00:43.446Z,31.98
2019-03-12T09:03:30.043Z,31.99
2019-03-12T09:06:08.799Z,30.78
2019-03-12T09:08:42.072Z,31.30
2019-03-12T09:11:12.166Z,30.61
2019-03-12T09:13:52.464Z,30.80
2019-03-12T09:16:28.684Z,30.10
2019-03-12T09:19:01.466Z,29.89
2019-03-12T09:21:31.502Z,29.06
2019-03-12T09:24:07.240Z,29.62
2019-03-12T09:26:43.625Z,31.23
2019-03-12T09:29:16.489Z,29.63
2019-03-12T09:31:58.598Z,29.32
2019-03-12T09:34:34.467Z,29.28
2019-03-12T09:37:10.503Z,27.82
2019-03-12T09:39:55.711Z,26.20
2019-03-12T09:42:44.316Z,26.53
2019-03-12T09:45:26.446Z,27.96
2019-03-12T09:47:58.985Z,29.04
2019-03-12T09:50:29.082Z,29.02
2019-03-12T09:53:17.293Z,28.25
2019-03-12T09:55:56.311Z,28.94
2019-03-12T09:58:38.356Z,28.46
2019-03-12T10:01:11.189Z,29.37
2019-03-12T10:03:41.335Z,32.75
2019-03-12T10:06:17.712Z,31.16
2019-03-12T10:08:47.832Z,35.01
2019-03-12T10:11:29.833Z,33.58
2019-03-12T10:14:06.153Z,33.32
2019-03-12T10:16:42.068Z,32.84
2019-03-12T10:19:30.079Z,33.45
2019-03-12T10:22:12.243Z,34.98
2019-03-12T10:24:42.424Z,35.35
2019-03-12T10:27:28.919Z,35.52
2019-03-12T10:30:14.961Z,34.37
2019-03-12T10:32:53.750Z,33.51
2019-03-12T10:35:23.912Z,32.17
2019-03-12T10:38:03.031Z,32.62
2019-03-12T10:40:33.083Z,30.73
2019-03-12T10:43:15.951Z,30.87
2019-03-12T10:45:49.049Z,31.82
2019-03-12T10:48:18.087Z,29.54
2019-03-12T10:50:47.991Z,29.57
2019-03-12T10:53:16.451Z,30.01
2019-03-12T10:55:44.874Z,30.10
2019-03-12T10:58:13.423Z,30.75
2019-03-12T11:00:42.567Z,29.83
2019-03-12T11:03:10.983Z,28.27
2019-03-12T11:05:45.909Z,28.64
2019-03-12T11:08:09.807Z,29.59
2019-03-12T11:10:38.362Z,30.46
2019-03-12T11:13:06.837Z,30.62
2019-03-12T11:15:35.365Z,33.02
2019-03-12T11:18:03.955Z,34.94
2019-03-12T11:20:32.452Z,35.82
2019-03-12T11:23:01.116Z,36.47
2019-03-12T11:25:29.605Z,36.49
2019-03-12T11:27:58.081Z,38.55
2019-03-12T11:30:26.580Z,38.90
2019-03-12T11:32:55.119Z,37.79
2019-03-12T11:35:23.662Z,39.18
2019-03-12T11:37:52.236Z,39.54
2019-03-12T11:40:23.070Z,42.36
2019-03-12T11:42:51.689Z,43.47
2019-03-12T11:45:25.970Z,40.48
2019-03-12T11:47:50.537Z,42.23
2019-03-12T11:50:23.623Z,42.35
2019-03-12T11:52:57.164Z,43.39
2019-03-12T11:55:22.475Z,44.89
2019-03-12T11:57:51.058Z,44.03
2019-03-12T12:00:28.998Z,43.37
2019-03-12T12:03:00.271Z,44.32
2019-03-12T12:05:28.474Z,44.08
2019-03-12T12:07:56.999Z,43.66
2019-03-12T12:10:25.744Z,42.38
2019-03-12T12:12:54.277Z,43.15
2019-03-12T12:15:22.910Z,43.50
2019-03-12T12:17:51.457Z,43.95
2019-03-12T12:20:29.377Z,42.83
2019-03-12T12:22:50.270Z,43.31
2019-03-12T12:25:19.769Z,43.38
2019-03-12T12:27:48.288Z,44.32
2019-03-12T12:30:24.092Z,42.72
2019-03-12T12:32:52.649Z,43.56
2019-03-12T12:35:21.186Z,42.81
2019-03-12T12:37:49.625Z,42.35
2019-03-12T12:40:19.510Z,43.68
2019-03-12T12:42:48.094Z,45.92
2019-03-12T12:45:19.083Z,45.54
2019-03-12T12:47:47.642Z,45.57
2019-03-12T12:50:16.366Z,45.24
2019-03-12T12:52:44.968Z,44.63
2019-03-12T12:55:14.659Z,45.46
2019-03-12T12:57:43.222Z,45.32
2019-03-12T13:00:15.027Z,45.38
2019-03-12T13:02:43.620Z,44.18
2019-03-12T13:05:12.188Z,44.57
2019-03-12T13:07:40.676Z,45.18
2019-03-12T13:10:20.757Z,44.38
2019-03-12T13:12:49.314Z,45.59
2019-03-12T13:15:17.898Z,45.55
2019-03-12T13:17:46.384Z,45.80
2019-03-12T13:20:15.172Z,45.17
2019-03-12T13:22:43.721Z,45.37
2019-03-12T13:25:14.674Z,45.11
2019-03-12T13:27:43.554Z,44.26
2019-03-12T13:30:17.992Z,44.91
2019-03-12T13:32:46.562Z,44.90
2019-03-12T13:35:17.294Z,46.09
2019-03-12T13:37:45.985Z,45.55
2019-03-12T13:40:22.678Z,45.61
2019-03-12T13:42:51.359Z,44.31
2019-03-12T13:45:22.516Z,44.43
2019-03-12T13:47:51.097Z,44.34
2019-03-12T13:50:20.066Z,45.07
2019-03-12T13:52:48.757Z,45.42
2019-03-12T13:55:17.457Z,44.73
2019-03-12T13:57:46.181Z,44.11
2019-03-12T14:00:20.307Z,44.14
2019-03-12T14:02:48.875Z,44.45
2019-03-12T14:05:17.420Z,43.90
2019-03-12T14:07:45.941Z,43.73
2019-03-12T14:10:22.303Z,42.90
2019-03-12T14:12:52.106Z,43.40
2019-03-12T14:15:26.134Z,43.38
2019-03-12T14:17:54.712Z,44.30
2019-03-12T14:20:40.392Z,43.17
2019-03-12T14:23:10.679Z,43.28
2019-03-12T14:25:39.243Z,42.30
2019-03-12T14:28:07.838Z,42.13
2019-03-12T14:30:36.427Z,41.88
2019-03-12T14:33:05.047Z,40.46
2019-03-12T14:35:33.644Z,41.51
2019-03-12T14:38:02.168Z,41.86
2019-03-12T14:40:30.664Z,42.41
2019-03-12T14:42:59.254Z,42.44
2019-03-12T14:45:31.058Z,42.42
2019-03-12T14:47:59.657Z,41.85
2019-03-12T14:50:30.121Z,41.11
2019-03-12T14:53:07.463Z,41.27
2019-03-12T14:55:35.435Z,41.43
2019-03-12T14:58:03.885Z,41.17
2019-03-12T15:00:32.470Z,39.29
2019-03-12T15:03:01.039Z,41.68
2019-03-12T15:05:29.581Z,41.38
2019-03-12T15:07:58.147Z,42.28
2019-03-12T15:10:26.643Z,41.61
2019-03-12T15:12:55.173Z,41.44
2019-03-12T15:15:23.735Z,41.57
2019-03-12T15:17:52.153Z,41.90
2019-03-12T15:20:20.752Z,41.69
2019-03-12T15:22:49.249Z,41.86
2019-03-12T15:25:17.858Z,41.82
2019-03-12T15:27:46.288Z,42.06
2019-03-12T15:30:23.559Z,41.58
2019-03-12T15:32:51.988Z,40.92
2019-03-12T15:35:20.476Z,40.98
2019-03-12T15:37:49.081Z,39.40
2019-03-12T15:40:17.642Z,38.97
2019-03-12T15:42:46.735Z,39.05
2019-03-12T15:45:16.345Z,40.22
2019-03-12T15:47:44.859Z,41.03
2019-03-12T15:50:18.943Z,41.09
2019-03-12T15:52:47.626Z,40.40
2019-03-12T15:55:16.118Z,40.33
2019-03-12T15:57:44.592Z,41.65
2019-03-12T16:00:16.252Z,42.15
2019-03-12T16:02:44.757Z,41.32
2019-03-12T16:05:13.415Z,40.95
2019-03-12T16:07:41.954Z,42.07
2019-03-12T16:10:15.186Z,42.46
2019-03-12T16:12:43.793Z,42.05
2019-03-12T16:15:14.562Z,42.36
2019-03-12T16:17:43.095Z,42.50
2019-03-12T16:20:22.521Z,43.28
2019-03-12T16:22:51.113Z,43.25
2019-03-12T16:25:19.603Z,43.56
2019-03-12T16:27:48.129Z,43.88
2019-03-12T16:30:17.788Z,43.28
2019-03-12T16:32:46.304Z,43.44
2019-03-12T16:35:14.864Z,42.89
2019-03-12T16:37:43.309Z,43.46
2019-03-12T16:40:16.808Z,44.03
2019-03-12T16:42:45.389Z,43.63
2019-03-12T16:45:16.155Z,43.87
2019-03-12T16:47:44.698Z,43.67
2019-03-12T16:50:16.974Z,43.86
2019-03-12T16:52:45.539Z,42.64
2019-03-12T16:55:20.491Z,42.97
2019-03-12T16:57:48.901Z,43.29
2019-03-12T17:00:18.878Z,42.09
2019-03-12T17:02:47.464Z,42.97
2019-03-12T17:05:16.314Z,42.50
2019-03-12T17:07:44.917Z,42.97
2019-03-12T17:10:20.731Z,42.74
2019-03-12T17:12:49.308Z,42.59
2019-03-12T17:15:22.817Z,41.55
2019-03-12T17:17:51.309Z,41.59
2019-03-12T17:20:19.891Z,41.85
2019-03-12T17:22:48.488Z,40.71
2019-03-12T17:25:17.049Z,41.25
2019-03-12T17:27:45.559Z,41.93
2019-03-12T17:30:19.385Z,41.28
2019-03-12T17:32:47.951Z,40.54
2019-03-12T17:35:30.945Z,40.71
2019-03-12T17:37:59.598Z,41.56
2019-03-12T17:40:28.097Z,40.68
2019-03-12T17:42:56.588Z,40.81
2019-03-12T17:45:25.188Z,40.83
2019-03-12T17:47:53.763Z,41.16
2019-03-12T17:50:22.427Z,41.29
2019-03-12T17:52:50.862Z,41.68
2019-03-12T17:55:19.423Z,42.52
2019-03-12T17:57:50.582Z,41.87
2019-03-12T18:00:28.362Z,42.74
2019-03-12T18:02:56.745Z,42.41
2019-03-12T18:05:25.266Z,41.99
2019-03-12T18:07:54.107Z,42.22
2019-03-12T18:10:22.538Z,42.29
2019-03-12T18:12:51.109Z,42.11
2019-03-12T18:15:20.500Z,41.94
2019-03-12T18:17:49.374Z,41.49
2019-03-12T18:20:22.573Z,41.22
2019-03-12T18:22:51.109Z,41.10
2019-03-12T18:25:28.419Z,40.67
2019-03-12T18:27:57.103Z,40.51
2019-03-12T18:30:25.615Z,40.04
2019-03-12T18:32:54.159Z,39.93
2019-03-12T18:35:22.641Z,39.94
2019-03-12T18:37:51.240Z,39.00
2019-03-12T18:40:21.680Z,39.35
2019-03-12T18:42:50.283Z,39.18
2019-03-12T18:45:26.863Z,39.30
2019-03-12T18:47:55.340Z,38.69
2019-03-12T18:50:23.862Z,39.52
2019-03-12T18:52:52.434Z,39.63
2019-03-12T18:55:38.187Z,40.37
2019-03-12T18:58:10.300Z,40.83
2019-03-12T19:00:41.099Z,41.01
2019-03-12T19:03:09.577Z,40.06
2019-03-12T19:05:38.103Z,40.37
2019-03-12T19:08:06.700Z,40.35
2019-03-12T19:10:35.217Z,40.28
2019-03-12T19:13:03.708Z,40.11
2019-03-12T19:15:32.315Z,40.07
2019-03-12T19:18:00.817Z,39.48
2019-03-12T19:20:32.756Z,39.35
2019-03-12T19:22:59.566Z,38.91
2019-03-12T19:25:39.642Z,39.00
2019-03-12T19:28:08.218Z,37.31
2019-03-12T19:30:36.861Z,38.41
2019-03-12T19:33:14.443Z,36.57
2019-03-12T19:35:42.954Z,37.00
2019-03-12T19:38:11.533Z,36.11
2019-03-12T19:40:45.339Z,35.51
2019-03-12T19:43:14.091Z,35.55
2019-03-12T19:45:42.897Z,35.12
2019-03-12T19:48:11.467Z,35.57
2019-03-12T19:50:40.017Z,36.01
2019-03-12T19:53:08.655Z,37.16
2019-03-12T19:55:40.047Z,36.11
2019-03-12T19:58:08.664Z,36.92
2019-03-12T20:00:38.036Z,37.17
2019-03-12T20:03:12.060Z,38.15
2019-03-12T20:05:37.082Z,37.76
2019-03-12T20:08:05.754Z,38.00
2019-03-12T20:10:58.067Z,38.62
2019-03-12T20:13:46.258Z,37.98
2019-03-12T20:16:32.769Z,39.08
2019-03-12T20:19:29.659Z,39.44
2019-03-12T20:22:20.885Z,38.66
2019-03-12T20:25:14.666Z,38.93
2019-03-12T20:28:01.347Z,39.09
2019-03-12T20:30:59.274Z,37.51
2019-03-12T20:34:02.439Z,37.65
2019-03-12T20:36:49.037Z,37.67
2019-03-12T20:39:29.251Z,36.73
2019-03-12T20:42:15.901Z,36.20
2019-03-12T20:45:20.966Z,36.51
2019-03-12T20:48:11.638Z,37.19
2019-03-12T20:51:17.008Z,36.84
2019-03-12T20:54:15.940Z,35.83
2019-03-12T20:57:07.245Z,36.44
2019-03-12T21:00:09.875Z,34.96
2019-03-12T21:03:04.103Z,34.94
2019-03-12T21:06:07.418Z,35.03
2019-03-12T21:08:58.600Z,34.34
2019-03-12T21:11:41.646Z,34.58
2019-03-12T21:14:29.558Z,36.49
2019-03-12T21:17:34.380Z,37.54
2019-03-12T21:20:40.761Z,38.34
2019-03-12T21:23:17.870Z,38.48
2019-03-12T21:25:58.216Z,39.14
2019-03-12T21:28:38.495Z,39.45
2019-03-12T21:31:07.271Z,39.45
2019-03-12T21:33:35.766Z,39.75
2019-03-12T21:36:07.941Z,40.52
2019-03-12T21:38:35.861Z,41.34
2019-03-12T21:41:04.418Z,42.07
2019-03-12T21:43:32.935Z,42.10
2019-03-12T21:46:01.490Z,41.79
2019-03-12T21:48:29.959Z,41.24
2019-03-12T21:50:58.448Z,41.49
2019-03-12T21:53:26.916Z,42.82
2019-03-12T21:55:55.346Z,42.31
2019-03-12T21:58:23.771Z,42.24
2019-03-12T22:00:52.287Z,42.16
2019-03-12T22:03:20.732Z,42.53
2019-03-12T22:05:49.256Z,42.06
2019-03-12T22:08:17.649Z,42.27
2019-03-12T22:10:46.173Z,43.01
2019-03-12T22:13:14.796Z,42.25
2019-03-12T22:15:43.216Z,42.37
2019-03-12T22:18:11.723Z,42.31
2019-03-12T22:20:40.194Z,42.67
2019-03-12T22:23:28.437Z,42.16
2019-03-12T22:25:57.127Z,43.06
2019-03-12T22:28:25.545Z,42.44
2019-03-12T22:30:54.099Z,43.24
2019-03-12T22:33:22.616Z,43.15
2019-03-12T22:35:51.188Z,42.94
2019-03-12T22:38:19.663Z,42.28
2019-03-12T22:40:48.072Z,42.27
2019-03-12T22:43:16.590Z,41.80
2019-03-12T22:45:45.550Z,41.71
2019-03-12T22:48:13.969Z,41.98
2019-03-12T22:50:42.455Z,42.37
2019-03-12T22:53:10.914Z,43.04
2019-03-12T22:55:39.330Z,43.15
2019-03-12T22:58:07.760Z,42.68
2019-03-12T23:00:40.008Z,42.82
2019-03-12T23:03:08.621Z,43.12
2019-03-12T23:05:38.077Z,43.48
2019-03-12T23:08:06.628Z,43.25
2019-03-12T23:10:35.269Z,43.52
2019-03-12T23:13:03.758Z,43.93
2019-03-12T23:15:32.435Z,44.07
2019-03-12T23:18:00.954Z,44.87
2019-03-12T23:20:29.427Z,45.44
2019-03-12T23:22:57.880Z,46.32
2019-03-12T23:25:26.294Z,46.75
2019-03-12T23:27:54.744Z,47.31
2019-03-12T23:30:24.278Z,48.28
2019-03-12T23:32:53.763Z,48.89
2019-03-12T23:35:22.267Z,51.31
2019-03-12T23:37:50.869Z,51.64
2019-03-12T23:40:19.701Z,52.78
2019-03-12T23:42:48.274Z,54.90
2019-03-12T23:45:18.071Z,57.99
2019-03-12T23:47:50.013Z,58.57
2019-03-12T23:50:19.938Z,59.34
2019-03-12T23:52:48.421Z,60.72
2019-03-12T23:55:18.267Z,61.68
2019-03-12T23:57:47.045Z,62.55
